AAL2062 KMIA-KLAX
Flight info
| Callsign | AAL2062 |
|---|---|
| Flight time | N/A |
| Altitude | 36000 |
| Route | GLADZ4 BAGGS REMIS Y280 LEV J86 KAPAA/N0486F380 J86 ELP J50 SSO J4 WLVRN ESTWD HLYWD1 |
| Aircraft | B77W/H-SDE1E2E3FGHIJ2J3J4J5M1RWXY/LB1D1 |
Departure
| Time | 2026-05-07 21:48 |
|---|---|
| Airport | Miami International Airport (KMIA) |
Arrival
| Time | N/A |
|---|---|
| Airport | Los Angeles International Airport (KLAX) |
| Time | Latitude | Longitude | Altitude | Speed | Heading |
|---|---|---|---|---|---|
| 2026-05-07 21:40 | 25.79952 | -80.27734 | 18 ft | 0 kts | 268° |
| 2026-05-07 21:41 | 25.79951 | -80.27755 | 18 ft | 11 kts | 268° |
| 2026-05-07 21:41 | 25.79955 | -80.27868 | 18 ft | 15 kts | 276° |
| 2026-05-07 21:42 | 25.79963 | -80.27979 | 18 ft | 14 kts | 271° |
| 2026-05-07 21:42 | 25.79961 | -80.28110 | 18 ft | 21 kts | 267° |
| 2026-05-07 21:42 | 25.79954 | -80.28279 | 18 ft | 21 kts | 267° |
| 2026-05-07 21:42 | 25.79947 | -80.28437 | 18 ft | 20 kts | 268° |
| 2026-05-07 21:43 | 25.79941 | -80.28584 | 19 ft | 18 kts | 269° |
| 2026-05-07 21:43 | 25.79938 | -80.28718 | 19 ft | 17 kts | 268° |
| 2026-05-07 21:43 | 25.79931 | -80.28836 | 19 ft | 14 kts | 267° |
| 2026-05-07 21:43 | 25.79940 | -80.28886 | 19 ft | 5 kts | 312° |
| 2026-05-07 21:44 | 25.79973 | -80.28907 | 19 ft | 8 kts | 328° |
| 2026-05-07 21:44 | 25.80007 | -80.28990 | 19 ft | 13 kts | 271° |
| 2026-05-07 21:44 | 25.80004 | -80.29098 | 19 ft | 17 kts | 266° |
| 2026-05-07 21:44 | 25.79996 | -80.29234 | 19 ft | 18 kts | 266° |
| 2026-05-07 21:45 | 25.79989 | -80.29381 | 19 ft | 20 kts | 268° |
| 2026-05-07 21:45 | 25.79985 | -80.29545 | 19 ft | 22 kts | 268° |
| 2026-05-07 21:45 | 25.79978 | -80.29704 | 19 ft | 20 kts | 267° |
| 2026-05-07 21:45 | 25.79971 | -80.29847 | 19 ft | 18 kts | 268° |
| 2026-05-07 21:46 | 25.79966 | -80.29973 | 19 ft | 14 kts | 268° |
| 2026-05-07 21:46 | 25.79977 | -80.30064 | 19 ft | 11 kts | 297° |
| 2026-05-07 21:46 | 25.80030 | -80.30116 | 19 ft | 7 kts | 342° |
| 2026-05-07 21:46 | 25.80063 | -80.30097 | 19 ft | 5 kts | 63° |
| 2026-05-07 21:47 | 25.80069 | -80.30074 | 19 ft | 0 kts | 82° |
| 2026-05-07 21:47 | 25.80078 | -80.29962 | 19 ft | 43 kts | 86° |
| 2026-05-07 21:47 | 25.80101 | -80.29376 | 19 ft | 109 kts | 87° |
| 2026-05-07 21:48 | 25.80149 | -80.28310 | 21 ft | 165 kts | 88° |
| 2026-05-07 21:48 | 25.80207 | -80.26984 | 486 ft | 175 kts | 91° |
| 2026-05-07 21:48 | 25.80228 | -80.25576 | 997 ft | 193 kts | 89° |
| 2026-05-07 21:48 | 25.80291 | -80.24060 | 1430 ft | 206 kts | 89° |
| 2026-05-07 21:49 | 25.80364 | -80.22414 | 1750 ft | 222 kts | 88° |
| 2026-05-07 21:49 | 25.80441 | -80.20656 | 2153 ft | 237 kts | 88° |
| 2026-05-07 21:49 | 25.80660 | -80.18792 | 2512 ft | 255 kts | 71° |
| 2026-05-07 21:49 | 25.81601 | -80.17084 | 2881 ft | 269 kts | 42° |
| 2026-05-07 21:50 | 25.83219 | -80.16042 | 3489 ft | 271 kts | 13° |
| 2026-05-07 21:50 | 25.85073 | -80.15817 | 4220 ft | 270 kts | 360° |
| 2026-05-07 21:50 | 25.86945 | -80.15789 | 4956 ft | 271 kts | 360° |
| 2026-05-07 21:50 | 25.88829 | -80.15768 | 5681 ft | 272 kts | 355° |
| 2026-05-07 21:51 | 25.90672 | -80.16174 | 6364 ft | 273 kts | 343° |
| 2026-05-07 21:51 | 25.92493 | -80.16792 | 6995 ft | 277 kts | 342° |
| 2026-05-07 21:51 | 25.94338 | -80.17444 | 7596 ft | 281 kts | 342° |
| 2026-05-07 21:51 | 25.96216 | -80.18120 | 8241 ft | 284 kts | 338° |
| 2026-05-07 21:52 | 25.97865 | -80.19316 | 8768 ft | 289 kts | 313° |
| 2026-05-07 21:52 | 25.98915 | -80.21223 | 9274 ft | 296 kts | 288° |
| 2026-05-07 21:52 | 25.99352 | -80.23454 | 9901 ft | 298 kts | 279° |
| 2026-05-07 21:52 | 25.99626 | -80.25734 | 10412 ft | 305 kts | 278° |
| 2026-05-07 21:53 | 25.99789 | -80.28138 | 10681 ft | 322 kts | 271° |
| 2026-05-07 21:53 | 25.99789 | -80.30682 | 11007 ft | 337 kts | 270° |
| 2026-05-07 21:53 | 25.99777 | -80.33355 | 11349 ft | 352 kts | 270° |
| 2026-05-07 21:53 | 25.99770 | -80.36128 | 11706 ft | 367 kts | 270° |
| 2026-05-07 21:54 | 25.99691 | -80.39006 | 12065 ft | 382 kts | 264° |
| 2026-05-07 21:54 | 25.99160 | -80.41928 | 12527 ft | 393 kts | 253° |
| 2026-05-07 21:54 | 25.98104 | -80.44741 | 13204 ft | 399 kts | 242° |
| 2026-05-07 21:54 | 25.96573 | -80.47320 | 13951 ft | 403 kts | 234° |
| 2026-05-07 21:55 | 25.94858 | -80.49778 | 14768 ft | 407 kts | 233° |
| 2026-05-07 21:55 | 25.93098 | -80.52271 | 15561 ft | 411 kts | 233° |
| 2026-05-07 21:55 | 25.91329 | -80.54775 | 15918 ft | 415 kts | 233° |
| 2026-05-07 21:55 | 25.89554 | -80.57284 | 15957 ft | 414 kts | 233° |
| 2026-05-07 21:56 | 25.87784 | -80.59787 | 15959 ft | 413 kts | 233° |
| 2026-05-07 21:56 | 25.85967 | -80.62354 | 16359 ft | 427 kts | 234° |
| 2026-05-07 21:56 | 25.84148 | -80.64923 | 17491 ft | 422 kts | 234° |
| 2026-05-07 21:56 | 25.82351 | -80.67458 | 18495 ft | 420 kts | 234° |
| 2026-05-07 21:57 | 25.80536 | -80.70023 | 19234 ft | 424 kts | 235° |
| 2026-05-07 21:57 | 25.78935 | -80.72765 | 19903 ft | 427 kts | 244° |
| 2026-05-07 21:57 | 25.77742 | -80.75767 | 20620 ft | 429 kts | 252° |
| 2026-05-07 21:57 | 25.76850 | -80.78908 | 21363 ft | 430 kts | 255° |
| 2026-05-07 21:58 | 25.75989 | -80.82082 | 22119 ft | 432 kts | 255° |
| 2026-05-07 21:58 | 25.75124 | -80.85270 | 22798 ft | 436 kts | 255° |
| 2026-05-07 21:58 | 25.74248 | -80.88491 | 23451 ft | 440 kts | 255° |
| 2026-05-07 21:58 | 25.73359 | -80.91759 | 24087 ft | 444 kts | 255° |
| 2026-05-07 21:59 | 25.72467 | -80.95028 | 24708 ft | 448 kts | 255° |
| 2026-05-07 21:59 | 25.71564 | -80.98332 | 25311 ft | 452 kts | 255° |
| 2026-05-07 21:59 | 25.70652 | -81.01667 | 25940 ft | 455 kts | 255° |
| 2026-05-07 21:59 | 25.69733 | -81.05023 | 26542 ft | 459 kts | 255° |
| 2026-05-07 22:00 | 25.68806 | -81.08404 | 27110 ft | 463 kts | 255° |
| 2026-05-07 22:00 | 25.67870 | -81.11812 | 27669 ft | 467 kts | 255° |
| 2026-05-07 22:00 | 25.66931 | -81.15281 | 28224 ft | 470 kts | 257° |
| 2026-05-07 22:00 | 25.66308 | -81.18820 | 28767 ft | 472 kts | 265° |
| 2026-05-07 22:01 | 25.66149 | -81.22438 | 29319 ft | 473 kts | 273° |
| 2026-05-07 22:01 | 25.66471 | -81.26037 | 30029 ft | 472 kts | 281° |
| 2026-05-07 22:01 | 25.67257 | -81.29521 | 30883 ft | 467 kts | 289° |
| 2026-05-07 22:01 | 25.68467 | -81.32814 | 31738 ft | 462 kts | 295° |
| 2026-05-07 22:02 | 25.69883 | -81.35980 | 32466 ft | 460 kts | 296° |
| 2026-05-07 22:02 | 25.71323 | -81.39148 | 33118 ft | 459 kts | 296° |
| 2026-05-07 22:02 | 25.72751 | -81.42287 | 33772 ft | 458 kts | 296° |
| 2026-05-07 22:02 | 25.74184 | -81.45441 | 33967 ft | 461 kts | 296° |
| 2026-05-07 22:03 | 25.77039 | -81.51726 | 33971 ft | 455 kts | 296° |
| 2026-05-07 22:03 | 25.79872 | -81.57974 | 33975 ft | 456 kts | 296° |
| 2026-05-07 22:04 | 25.82720 | -81.64264 | 33977 ft | 454 kts | 296° |
| 2026-05-07 22:04 | 25.85542 | -81.70504 | 33994 ft | 455 kts | 296° |
| 2026-05-07 22:05 | 25.88607 | -81.76593 | 34004 ft | 455 kts | 304° |
| 2026-05-07 22:05 | 25.92999 | -81.81677 | 33994 ft | 459 kts | 319° |
| 2026-05-07 22:06 | 25.98085 | -81.85963 | 34000 ft | 459 kts | 320° |
| 2026-05-07 22:06 | 26.03176 | -81.90228 | 33998 ft | 458 kts | 320° |
| 2026-05-07 22:07 | 26.08252 | -81.94493 | 33997 ft | 459 kts | 320° |
| 2026-05-07 22:07 | 26.13363 | -81.98795 | 33994 ft | 458 kts | 320° |
| 2026-05-07 22:08 | 26.18451 | -82.03084 | 33990 ft | 460 kts | 320° |
| 2026-05-07 22:08 | 26.23556 | -82.07394 | 33986 ft | 458 kts | 320° |
| 2026-05-07 22:09 | 26.28640 | -82.11691 | 33984 ft | 457 kts | 320° |
| 2026-05-07 22:09 | 26.33707 | -82.15979 | 33980 ft | 458 kts | 320° |
| 2026-05-07 22:10 | 26.38770 | -82.20268 | 33980 ft | 458 kts | 320° |
| 2026-05-07 22:10 | 26.43831 | -82.24561 | 33975 ft | 458 kts | 320° |
| 2026-05-07 22:11 | 26.48901 | -82.28866 | 33975 ft | 457 kts | 320° |
| 2026-05-07 22:11 | 26.53950 | -82.33158 | 33974 ft | 457 kts | 320° |
| 2026-05-07 22:12 | 26.58997 | -82.37453 | 33974 ft | 457 kts | 319° |
| 2026-05-07 22:12 | 26.64059 | -82.41766 | 33972 ft | 457 kts | 319° |
| 2026-05-07 22:13 | 26.69100 | -82.46066 | 33973 ft | 456 kts | 319° |
| 2026-05-07 22:13 | 26.74135 | -82.50366 | 33974 ft | 457 kts | 319° |
| 2026-05-07 22:14 | 26.79170 | -82.54671 | 33979 ft | 457 kts | 319° |
| 2026-05-07 22:14 | 26.84203 | -82.58978 | 33979 ft | 456 kts | 319° |
| 2026-05-07 22:15 | 26.89341 | -82.63381 | 33979 ft | 456 kts | 319° |
| 2026-05-07 22:15 | 26.93999 | -82.67378 | 33989 ft | 456 kts | 319° |
| 2026-05-07 22:16 | 26.99042 | -82.71709 | 33990 ft | 456 kts | 319° |
| 2026-05-07 22:16 | 27.04065 | -82.76028 | 33988 ft | 456 kts | 318° |
| 2026-05-07 22:17 | 27.09051 | -82.80363 | 33981 ft | 453 kts | 315° |
| 2026-05-07 22:17 | 27.13170 | -82.85587 | 33987 ft | 446 kts | 300° |
| 2026-05-07 22:18 | 27.16912 | -82.95071 | 33987 ft | 443 kts | 289° |
| 2026-05-07 22:19 | 27.18999 | -83.01547 | 33986 ft | 443 kts | 288° |
| 2026-05-07 22:19 | 27.21077 | -83.08035 | 33986 ft | 444 kts | 288° |
| 2026-05-07 22:20 | 27.23155 | -83.14545 | 33984 ft | 443 kts | 288° |
| 2026-05-07 22:20 | 27.25224 | -83.21045 | 33984 ft | 443 kts | 288° |
| 2026-05-07 22:21 | 27.27284 | -83.27533 | 33983 ft | 442 kts | 288° |
| 2026-05-07 22:21 | 27.29350 | -83.34053 | 33985 ft | 442 kts | 288° |
| 2026-05-07 22:22 | 27.31404 | -83.40545 | 33996 ft | 443 kts | 288° |
| 2026-05-07 22:22 | 27.33456 | -83.47047 | 34003 ft | 443 kts | 288° |
| 2026-05-07 22:23 | 27.35508 | -83.53560 | 34002 ft | 443 kts | 288° |
| 2026-05-07 22:23 | 27.37567 | -83.60104 | 34001 ft | 443 kts | 288° |
| 2026-05-07 22:24 | 27.39618 | -83.66638 | 34011 ft | 442 kts | 288° |
| 2026-05-07 22:24 | 27.41652 | -83.73131 | 34013 ft | 441 kts | 287° |
| 2026-05-07 22:25 | 27.43691 | -83.79650 | 34012 ft | 442 kts | 288° |
| 2026-05-07 22:25 | 27.45717 | -83.86138 | 34011 ft | 441 kts | 287° |
| 2026-05-07 22:26 | 27.47737 | -83.92621 | 34009 ft | 440 kts | 287° |
| 2026-05-07 22:26 | 27.49757 | -83.99118 | 34010 ft | 441 kts | 287° |
| 2026-05-07 22:27 | 27.51775 | -84.05615 | 34008 ft | 440 kts | 287° |
| 2026-05-07 22:27 | 27.53782 | -84.12092 | 34008 ft | 441 kts | 287° |
| 2026-05-07 22:28 | 27.55788 | -84.18578 | 34007 ft | 440 kts | 287° |
| 2026-05-07 22:28 | 27.57795 | -84.25082 | 34006 ft | 440 kts | 287° |
| 2026-05-07 22:29 | 27.59799 | -84.31583 | 34004 ft | 439 kts | 287° |
| 2026-05-07 22:29 | 27.61794 | -84.38072 | 34004 ft | 440 kts | 287° |
| 2026-05-07 22:30 | 27.63784 | -84.44553 | 34003 ft | 439 kts | 287° |
| 2026-05-07 22:30 | 27.65774 | -84.51046 | 34002 ft | 438 kts | 287° |
| 2026-05-07 22:31 | 27.67750 | -84.57510 | 34002 ft | 439 kts | 287° |
| 2026-05-07 22:31 | 27.69728 | -84.63988 | 34001 ft | 439 kts | 287° |
| 2026-05-07 22:32 | 27.71715 | -84.70511 | 34014 ft | 438 kts | 286° |
| 2026-05-07 22:32 | 27.73680 | -84.76972 | 34013 ft | 438 kts | 287° |
| 2026-05-07 22:33 | 27.75645 | -84.83446 | 34012 ft | 438 kts | 286° |
| 2026-05-07 22:33 | 27.77605 | -84.89916 | 34011 ft | 437 kts | 286° |
| 2026-05-07 22:34 | 27.79570 | -84.96415 | 34011 ft | 437 kts | 286° |
| 2026-05-07 22:34 | 27.81525 | -85.02892 | 34009 ft | 437 kts | 286° |
| 2026-05-07 22:35 | 27.83472 | -85.09355 | 34008 ft | 436 kts | 286° |
| 2026-05-07 22:35 | 27.85422 | -85.15840 | 34006 ft | 436 kts | 286° |
| 2026-05-07 22:36 | 27.87359 | -85.22296 | 34002 ft | 435 kts | 286° |
| 2026-05-07 22:36 | 27.89303 | -85.28760 | 33999 ft | 436 kts | 286° |
| 2026-05-07 22:37 | 27.91262 | -85.35212 | 33998 ft | 436 kts | 286° |
| 2026-05-07 22:37 | 27.93223 | -85.41684 | 33994 ft | 434 kts | 286° |
| 2026-05-07 22:38 | 27.95175 | -85.48142 | 33986 ft | 436 kts | 286° |
| 2026-05-07 22:38 | 27.97121 | -85.54592 | 33979 ft | 433 kts | 286° |
| 2026-05-07 22:39 | 27.99071 | -85.61070 | 33977 ft | 435 kts | 286° |
| 2026-05-07 22:39 | 28.01012 | -85.67532 | 33994 ft | 436 kts | 285° |
| 2026-05-07 22:40 | 28.02952 | -85.74000 | 33992 ft | 436 kts | 285° |
| 2026-05-07 22:40 | 28.04886 | -85.80462 | 33991 ft | 436 kts | 285° |
| 2026-05-07 22:41 | 28.06820 | -85.86938 | 33990 ft | 435 kts | 285° |
| 2026-05-07 22:41 | 28.08753 | -85.93421 | 33990 ft | 435 kts | 285° |
| 2026-05-07 22:42 | 28.10674 | -85.99876 | 33987 ft | 435 kts | 285° |
| 2026-05-07 22:42 | 28.12596 | -86.06348 | 33982 ft | 433 kts | 285° |
| 2026-05-07 22:43 | 28.14506 | -86.12793 | 33984 ft | 432 kts | 285° |
| 2026-05-07 22:43 | 28.16408 | -86.19223 | 33983 ft | 432 kts | 285° |
| 2026-05-07 22:44 | 28.18307 | -86.25654 | 33982 ft | 433 kts | 285° |
| 2026-05-07 22:44 | 28.20208 | -86.32104 | 33979 ft | 431 kts | 285° |
| 2026-05-07 22:45 | 28.22099 | -86.38534 | 33981 ft | 432 kts | 285° |
| 2026-05-07 22:45 | 28.23989 | -86.44972 | 33980 ft | 432 kts | 285° |
| 2026-05-07 22:46 | 28.25878 | -86.51421 | 33979 ft | 432 kts | 285° |
| 2026-05-07 22:46 | 28.27760 | -86.57855 | 33976 ft | 431 kts | 285° |
| 2026-05-07 22:47 | 28.29635 | -86.64284 | 33976 ft | 433 kts | 285° |
| 2026-05-07 22:47 | 28.31515 | -86.70736 | 33990 ft | 432 kts | 285° |
| 2026-05-07 22:48 | 28.33405 | -86.77188 | 33989 ft | 431 kts | 285° |
| 2026-05-07 22:48 | 28.35289 | -86.83619 | 33992 ft | 432 kts | 285° |
| 2026-05-07 22:49 | 28.37171 | -86.90058 | 33988 ft | 431 kts | 285° |
| 2026-05-07 22:49 | 28.39061 | -86.96539 | 33986 ft | 431 kts | 285° |
| 2026-05-07 22:50 | 28.40947 | -87.03020 | 33986 ft | 432 kts | 284° |
| 2026-05-07 22:50 | 28.42824 | -87.09485 | 33988 ft | 431 kts | 285° |
| 2026-05-07 22:51 | 28.44687 | -87.15910 | 33983 ft | 430 kts | 285° |
| 2026-05-07 22:51 | 28.46553 | -87.22361 | 33980 ft | 431 kts | 284° |
| 2026-05-07 22:52 | 28.48412 | -87.28803 | 33981 ft | 430 kts | 285° |
| 2026-05-07 22:52 | 28.50262 | -87.35221 | 33974 ft | 429 kts | 284° |
| 2026-05-07 22:53 | 28.52115 | -87.41667 | 33969 ft | 430 kts | 285° |
| 2026-05-07 22:53 | 28.53962 | -87.48103 | 33964 ft | 430 kts | 285° |
| 2026-05-07 22:54 | 28.55807 | -87.54543 | 33963 ft | 431 kts | 284° |
| 2026-05-07 22:54 | 28.57661 | -87.61029 | 33967 ft | 431 kts | 284° |
| 2026-05-07 22:55 | 28.59516 | -87.67534 | 33980 ft | 431 kts | 284° |
| 2026-05-07 22:55 | 28.61360 | -87.74011 | 33976 ft | 430 kts | 284° |
| 2026-05-07 22:56 | 28.63194 | -87.80465 | 33972 ft | 430 kts | 284° |
| 2026-05-07 22:56 | 28.65031 | -87.86945 | 33966 ft | 430 kts | 284° |
| 2026-05-07 22:57 | 28.66859 | -87.93402 | 33965 ft | 428 kts | 284° |
| 2026-05-07 22:57 | 28.68677 | -87.99843 | 33966 ft | 430 kts | 284° |
| 2026-05-07 22:58 | 28.70492 | -88.06282 | 33964 ft | 430 kts | 284° |
| 2026-05-07 22:58 | 28.72315 | -88.12765 | 33963 ft | 430 kts | 284° |
| 2026-05-07 22:59 | 28.74121 | -88.19199 | 33961 ft | 428 kts | 284° |
| 2026-05-07 22:59 | 28.75924 | -88.25640 | 33959 ft | 429 kts | 284° |
| 2026-05-07 23:00 | 28.77733 | -88.32113 | 33960 ft | 430 kts | 284° |
| 2026-05-07 23:00 | 28.79531 | -88.38558 | 33957 ft | 428 kts | 284° |
| 2026-05-07 23:01 | 28.81326 | -88.45007 | 33953 ft | 429 kts | 283° |
| 2026-05-07 23:01 | 28.83120 | -88.51465 | 33952 ft | 429 kts | 284° |
| 2026-05-07 23:02 | 28.84919 | -88.57956 | 33955 ft | 429 kts | 283° |
| 2026-05-07 23:02 | 28.86699 | -88.64387 | 33951 ft | 427 kts | 283° |
| 2026-05-07 23:03 | 28.88486 | -88.70868 | 33968 ft | 429 kts | 283° |
| 2026-05-07 23:03 | 28.89914 | -88.77433 | 33969 ft | 425 kts | 279° |
| 2026-05-07 23:04 | 28.91273 | -88.83955 | 33969 ft | 424 kts | 279° |
| 2026-05-07 23:04 | 28.92647 | -88.90493 | 33969 ft | 425 kts | 280° |
| 2026-05-07 23:05 | 28.94024 | -88.97014 | 33966 ft | 424 kts | 279° |
| 2026-05-07 23:05 | 28.95405 | -89.03558 | 33961 ft | 424 kts | 279° |
| 2026-05-07 23:06 | 28.96783 | -89.10092 | 33965 ft | 424 kts | 280° |
| 2026-05-07 23:06 | 28.98155 | -89.16608 | 33961 ft | 423 kts | 280° |
| 2026-05-07 23:07 | 28.99532 | -89.23165 | 33961 ft | 424 kts | 279° |
| 2026-05-07 23:07 | 29.00895 | -89.29670 | 33959 ft | 423 kts | 279° |
| 2026-05-07 23:08 | 29.02264 | -89.36223 | 33958 ft | 424 kts | 280° |
| 2026-05-07 23:08 | 29.03628 | -89.42766 | 33958 ft | 424 kts | 279° |
| 2026-05-07 23:09 | 29.04989 | -89.49307 | 33958 ft | 425 kts | 279° |
| 2026-05-07 23:09 | 29.06344 | -89.55839 | 33957 ft | 424 kts | 279° |
| 2026-05-07 23:10 | 29.07696 | -89.62378 | 33955 ft | 424 kts | 279° |
| 2026-05-07 23:10 | 29.09055 | -89.68962 | 33972 ft | 424 kts | 279° |
| 2026-05-07 23:11 | 29.10398 | -89.75487 | 33967 ft | 424 kts | 279° |
| 2026-05-07 23:11 | 29.11744 | -89.82048 | 33966 ft | 425 kts | 279° |
| 2026-05-07 23:12 | 29.13082 | -89.88584 | 33968 ft | 424 kts | 279° |
| 2026-05-07 23:12 | 29.14427 | -89.95169 | 33969 ft | 424 kts | 279° |
| 2026-05-07 23:13 | 29.15758 | -90.01708 | 33975 ft | 425 kts | 279° |
| 2026-05-07 23:13 | 29.17090 | -90.08268 | 33979 ft | 425 kts | 279° |
| 2026-05-07 23:14 | 29.18320 | -90.14855 | 33972 ft | 423 kts | 277° |
| 2026-05-07 23:14 | 29.19416 | -90.21445 | 33964 ft | 423 kts | 277° |
| 2026-05-07 23:15 | 29.20517 | -90.28023 | 33962 ft | 424 kts | 277° |
| 2026-05-07 23:15 | 29.21621 | -90.34610 | 33962 ft | 424 kts | 277° |
| 2026-05-07 23:16 | 29.22728 | -90.41222 | 33959 ft | 422 kts | 277° |
| 2026-05-07 23:16 | 29.23826 | -90.47794 | 33962 ft | 422 kts | 277° |
| 2026-05-07 23:17 | 29.24923 | -90.54377 | 33960 ft | 423 kts | 277° |
| 2026-05-07 23:17 | 29.26025 | -90.61001 | 33960 ft | 422 kts | 277° |
| 2026-05-07 23:18 | 29.27090 | -90.67429 | 33974 ft | 422 kts | 277° |
| 2026-05-07 23:18 | 29.28175 | -90.74000 | 33975 ft | 421 kts | 276° |
| 2026-05-07 23:19 | 29.29257 | -90.80568 | 33974 ft | 422 kts | 277° |
| 2026-05-07 23:19 | 29.30338 | -90.87154 | 33969 ft | 421 kts | 277° |
| 2026-05-07 23:20 | 29.31416 | -90.93745 | 33966 ft | 423 kts | 276° |
| 2026-05-07 23:20 | 29.32488 | -91.00309 | 33962 ft | 420 kts | 276° |
| 2026-05-07 23:21 | 29.33559 | -91.06900 | 33960 ft | 420 kts | 276° |
| 2026-05-07 23:21 | 29.34624 | -91.13475 | 33959 ft | 421 kts | 276° |
| 2026-05-07 23:22 | 29.35685 | -91.20039 | 33959 ft | 421 kts | 276° |
| 2026-05-07 23:22 | 29.36742 | -91.26604 | 33958 ft | 422 kts | 276° |
| 2026-05-07 23:23 | 29.37801 | -91.33202 | 33957 ft | 420 kts | 276° |
| 2026-05-07 23:23 | 29.38851 | -91.39764 | 33956 ft | 421 kts | 276° |
| 2026-05-07 23:24 | 29.39900 | -91.46346 | 33953 ft | 421 kts | 276° |
| 2026-05-07 23:24 | 29.40950 | -91.52953 | 33953 ft | 422 kts | 276° |
| 2026-05-07 23:25 | 29.41993 | -91.59537 | 33951 ft | 421 kts | 277° |
| 2026-05-07 23:25 | 29.43031 | -91.66108 | 33959 ft | 421 kts | 276° |
| 2026-05-07 23:26 | 29.44068 | -91.72700 | 33967 ft | 421 kts | 276° |
| 2026-05-07 23:26 | 29.45101 | -91.79288 | 33967 ft | 419 kts | 276° |
| 2026-05-07 23:27 | 29.46640 | -91.89145 | 33965 ft | 421 kts | 276° |
| 2026-05-07 23:27 | 29.47661 | -91.95703 | 33961 ft | 419 kts | 276° |
| 2026-05-07 23:28 | 29.48683 | -92.02299 | 33964 ft | 421 kts | 276° |
| 2026-05-07 23:28 | 29.49697 | -92.08864 | 33963 ft | 419 kts | 276° |
| 2026-05-07 23:29 | 29.50706 | -92.15414 | 33959 ft | 418 kts | 276° |
| 2026-05-07 23:29 | 29.51716 | -92.22004 | 33960 ft | 421 kts | 276° |
| 2026-05-07 23:30 | 29.52721 | -92.28573 | 33959 ft | 420 kts | 276° |
| 2026-05-07 23:30 | 29.53724 | -92.35157 | 33956 ft | 420 kts | 276° |
| 2026-05-07 23:31 | 29.54722 | -92.41729 | 33956 ft | 419 kts | 276° |
| 2026-05-07 23:31 | 29.55720 | -92.48322 | 33955 ft | 419 kts | 276° |
| 2026-05-07 23:32 | 29.56711 | -92.54890 | 33955 ft | 420 kts | 276° |
| 2026-05-07 23:32 | 29.57701 | -92.61484 | 33952 ft | 421 kts | 276° |
| 2026-05-07 23:33 | 29.58679 | -92.68011 | 33970 ft | 420 kts | 275° |
| 2026-05-07 23:33 | 29.59660 | -92.74576 | 33968 ft | 417 kts | 276° |
| 2026-05-07 23:34 | 29.60636 | -92.81147 | 33966 ft | 420 kts | 276° |
| 2026-05-07 23:34 | 29.61612 | -92.87730 | 33966 ft | 419 kts | 275° |
| 2026-05-07 23:35 | 29.62586 | -92.94324 | 33969 ft | 420 kts | 276° |
| 2026-05-07 23:35 | 29.63555 | -93.00912 | 33961 ft | 418 kts | 275° |
| 2026-05-07 23:36 | 29.64517 | -93.07477 | 33957 ft | 419 kts | 275° |
| 2026-05-07 23:36 | 29.65479 | -93.14067 | 33953 ft | 417 kts | 275° |
| 2026-05-07 23:37 | 29.66437 | -93.20648 | 33951 ft | 418 kts | 275° |
| 2026-05-07 23:37 | 29.67388 | -93.27212 | 33951 ft | 419 kts | 275° |
| 2026-05-07 23:38 | 29.68336 | -93.33769 | 33948 ft | 417 kts | 275° |
| 2026-05-07 23:38 | 29.69282 | -93.40347 | 33947 ft | 418 kts | 275° |
| 2026-05-07 23:39 | 29.70226 | -93.46930 | 33940 ft | 417 kts | 275° |
| 2026-05-07 23:39 | 29.71162 | -93.53479 | 33946 ft | 416 kts | 275° |
| 2026-05-07 23:40 | 29.72097 | -93.60040 | 33955 ft | 414 kts | 275° |
| 2026-05-07 23:40 | 29.73022 | -93.66572 | 33966 ft | 416 kts | 275° |
| 2026-05-07 23:41 | 29.73950 | -93.73127 | 33975 ft | 413 kts | 275° |
| 2026-05-07 23:41 | 29.74830 | -93.79385 | 33974 ft | 417 kts | 275° |
| 2026-05-07 23:42 | 29.75756 | -93.85978 | 33977 ft | 413 kts | 274° |
| 2026-05-07 23:42 | 29.76671 | -93.92525 | 33983 ft | 415 kts | 275° |
| 2026-05-07 23:43 | 29.77581 | -93.99055 | 33983 ft | 414 kts | 274° |
| 2026-05-07 23:43 | 29.78489 | -94.05606 | 33986 ft | 416 kts | 274° |
| 2026-05-07 23:44 | 29.79390 | -94.12119 | 33983 ft | 413 kts | 275° |
| 2026-05-07 23:44 | 29.80289 | -94.18643 | 33979 ft | 414 kts | 274° |
| 2026-05-07 23:45 | 29.81185 | -94.25178 | 33976 ft | 414 kts | 275° |
| 2026-05-07 23:45 | 29.82078 | -94.31705 | 33978 ft | 414 kts | 275° |
| 2026-05-07 23:46 | 29.82968 | -94.38240 | 33972 ft | 413 kts | 274° |
| 2026-05-07 23:46 | 29.83852 | -94.44758 | 33969 ft | 414 kts | 274° |
| 2026-05-07 23:47 | 29.84740 | -94.51339 | 34010 ft | 423 kts | 274° |
| 2026-05-07 23:47 | 29.85190 | -94.54687 | 34517 ft | 424 kts | 275° |
| 2026-05-07 23:47 | 29.85635 | -94.57981 | 35496 ft | 416 kts | 274° |
| 2026-05-07 23:48 | 29.86076 | -94.61256 | 35933 ft | 413 kts | 274° |
| 2026-05-07 23:48 | 29.86513 | -94.64519 | 35951 ft | 409 kts | 274° |
| 2026-05-07 23:48 | 29.87370 | -94.70933 | 35972 ft | 403 kts | 274° |
| 2026-05-07 23:49 | 29.88224 | -94.77366 | 35971 ft | 407 kts | 274° |
| 2026-05-07 23:49 | 29.89090 | -94.83908 | 35970 ft | 417 kts | 274° |
| 2026-05-07 23:50 | 29.89961 | -94.90498 | 35967 ft | 415 kts | 274° |
| 2026-05-07 23:50 | 29.90826 | -94.97069 | 35972 ft | 412 kts | 274° |
| 2026-05-07 23:51 | 29.91683 | -95.03617 | 35970 ft | 415 kts | 274° |
| 2026-05-07 23:51 | 29.92541 | -95.10196 | 35975 ft | 415 kts | 274° |
| 2026-05-07 23:52 | 29.93392 | -95.16737 | 35974 ft | 411 kts | 274° |
| 2026-05-07 23:52 | 29.94228 | -95.23206 | 35973 ft | 415 kts | 274° |
| 2026-05-07 23:53 | 29.95075 | -95.29774 | 35975 ft | 413 kts | 274° |
| 2026-05-07 23:53 | 29.95932 | -95.36313 | 35974 ft | 414 kts | 275° |
| 2026-05-07 23:54 | 29.96996 | -95.42836 | 35974 ft | 414 kts | 276° |
| 2026-05-07 23:54 | 29.98057 | -95.49367 | 35970 ft | 416 kts | 275° |
| 2026-05-07 23:55 | 29.99111 | -95.55916 | 35966 ft | 415 kts | 276° |
| 2026-05-07 23:55 | 30.00157 | -95.62455 | 35964 ft | 416 kts | 276° |
| 2026-05-07 23:56 | 30.01208 | -95.69060 | 35978 ft | 414 kts | 275° |
| 2026-05-07 23:56 | 30.02238 | -95.75559 | 35969 ft | 414 kts | 275° |
| 2026-05-07 23:57 | 30.03267 | -95.82079 | 35966 ft | 414 kts | 275° |
| 2026-05-07 23:57 | 30.04303 | -95.88670 | 35958 ft | 415 kts | 275° |
| 2026-05-07 23:58 | 30.05325 | -95.95184 | 35957 ft | 413 kts | 275° |
| 2026-05-07 23:58 | 30.06346 | -96.01727 | 35957 ft | 416 kts | 275° |
| 2026-05-07 23:59 | 30.07361 | -96.08237 | 35956 ft | 412 kts | 275° |
| 2026-05-07 23:59 | 30.08378 | -96.14802 | 35957 ft | 416 kts | 275° |
| 2026-05-08 00:00 | 30.09391 | -96.21346 | 35964 ft | 413 kts | 275° |
| 2026-05-08 00:00 | 30.10393 | -96.27844 | 35962 ft | 414 kts | 275° |
| 2026-05-08 00:01 | 30.11404 | -96.34431 | 35961 ft | 415 kts | 275° |
| 2026-05-08 00:01 | 30.12405 | -96.40969 | 35959 ft | 414 kts | 275° |
| 2026-05-08 00:02 | 30.13407 | -96.47539 | 35965 ft | 415 kts | 275° |
| 2026-05-08 00:02 | 30.14402 | -96.54083 | 35972 ft | 416 kts | 275° |
| 2026-05-08 00:03 | 30.15404 | -96.60697 | 35974 ft | 413 kts | 274° |
| 2026-05-08 00:03 | 30.16393 | -96.67245 | 35999 ft | 413 kts | 274° |
| 2026-05-08 00:04 | 30.17372 | -96.73755 | 36005 ft | 413 kts | 274° |
| 2026-05-08 00:04 | 30.18356 | -96.80320 | 36009 ft | 413 kts | 274° |
| 2026-05-08 00:05 | 30.19331 | -96.86844 | 36017 ft | 411 kts | 274° |
| 2026-05-08 00:05 | 30.20304 | -96.93390 | 36026 ft | 414 kts | 274° |
| 2026-05-08 00:06 | 30.21275 | -96.99927 | 36028 ft | 412 kts | 274° |
| 2026-05-08 00:06 | 30.22242 | -97.06475 | 36025 ft | 412 kts | 274° |
| 2026-05-08 00:07 | 30.23205 | -97.13018 | 36018 ft | 414 kts | 274° |
| 2026-05-08 00:07 | 30.24165 | -97.19556 | 36014 ft | 413 kts | 274° |
| 2026-05-08 00:08 | 30.25129 | -97.26161 | 36001 ft | 415 kts | 274° |
| 2026-05-08 00:08 | 30.26086 | -97.32724 | 35995 ft | 413 kts | 274° |
| 2026-05-08 00:09 | 30.27044 | -97.39332 | 35992 ft | 415 kts | 274° |
| 2026-05-08 00:09 | 30.27993 | -97.45889 | 35997 ft | 414 kts | 274° |
| 2026-05-08 00:10 | 30.28942 | -97.52485 | 35998 ft | 418 kts | 274° |
| 2026-05-08 00:10 | 30.29891 | -97.59089 | 36003 ft | 414 kts | 274° |
| 2026-05-08 00:11 | 30.30831 | -97.65666 | 36000 ft | 417 kts | 274° |
| 2026-05-08 00:11 | 30.31775 | -97.72287 | 36015 ft | 414 kts | 273° |
| 2026-05-08 00:12 | 30.32706 | -97.78847 | 36020 ft | 415 kts | 273° |
| 2026-05-08 00:12 | 30.33638 | -97.85441 | 36025 ft | 415 kts | 274° |
| 2026-05-08 00:13 | 30.34564 | -97.92013 | 36014 ft | 414 kts | 273° |
| 2026-05-08 00:13 | 30.35488 | -97.98595 | 36021 ft | 414 kts | 273° |
| 2026-05-08 00:14 | 30.36408 | -98.05182 | 36022 ft | 414 kts | 274° |
| 2026-05-08 00:14 | 30.37323 | -98.11740 | 36011 ft | 411 kts | 273° |
| 2026-05-08 00:15 | 30.38237 | -98.18335 | 36015 ft | 414 kts | 274° |
| 2026-05-08 00:15 | 30.39143 | -98.24878 | 36008 ft | 410 kts | 273° |
| 2026-05-08 00:16 | 30.40044 | -98.31430 | 36011 ft | 414 kts | 274° |
| 2026-05-08 00:16 | 30.40944 | -98.37988 | 36013 ft | 412 kts | 274° |
| 2026-05-08 00:17 | 30.41846 | -98.44592 | 36015 ft | 415 kts | 273° |
| 2026-05-08 00:17 | 30.42741 | -98.51158 | 36011 ft | 412 kts | 273° |
| 2026-05-08 00:18 | 30.43636 | -98.57762 | 36012 ft | 414 kts | 274° |
| 2026-05-08 00:18 | 30.44527 | -98.64361 | 36006 ft | 416 kts | 273° |
| 2026-05-08 00:19 | 30.45417 | -98.70972 | 36027 ft | 412 kts | 272° |
| 2026-05-08 00:19 | 30.46299 | -98.77556 | 36024 ft | 416 kts | 272° |
| 2026-05-08 00:20 | 30.47184 | -98.84179 | 36028 ft | 412 kts | 272° |
| 2026-05-08 00:20 | 30.48065 | -98.90812 | 36025 ft | 416 kts | 273° |
| 2026-05-08 00:21 | 30.48939 | -98.97411 | 36024 ft | 413 kts | 273° |
| 2026-05-08 00:21 | 30.49809 | -99.04006 | 36027 ft | 415 kts | 272° |
| 2026-05-08 00:22 | 30.50678 | -99.10614 | 36023 ft | 412 kts | 272° |
| 2026-05-08 00:22 | 30.51540 | -99.17210 | 36026 ft | 414 kts | 272° |
| 2026-05-08 00:23 | 30.52401 | -99.23816 | 36026 ft | 416 kts | 272° |
| 2026-05-08 00:23 | 30.53260 | -99.30428 | 36029 ft | 411 kts | 272° |
| 2026-05-08 00:24 | 30.54111 | -99.37017 | 36030 ft | 416 kts | 272° |
| 2026-05-08 00:24 | 30.54964 | -99.43634 | 36032 ft | 412 kts | 272° |
| 2026-05-08 00:25 | 30.55807 | -99.50218 | 36038 ft | 414 kts | 272° |
| 2026-05-08 00:25 | 30.56650 | -99.56821 | 36041 ft | 414 kts | 272° |
| 2026-05-08 00:26 | 30.57489 | -99.63413 | 36035 ft | 412 kts | 272° |
| 2026-05-08 00:26 | 30.58326 | -99.70032 | 36051 ft | 417 kts | 271° |
| 2026-05-08 00:27 | 30.59167 | -99.76695 | 36048 ft | 413 kts | 272° |
| 2026-05-08 00:27 | 30.59996 | -99.83296 | 36048 ft | 414 kts | 271° |
| 2026-05-08 00:28 | 30.60823 | -99.89957 | 36053 ft | 414 kts | 272° |
| 2026-05-08 00:28 | 30.61641 | -99.96563 | 36058 ft | 414 kts | 271° |
| 2026-05-08 00:29 | 30.62464 | -100.03252 | 36053 ft | 414 kts | 271° |
| 2026-05-08 00:29 | 30.63276 | -100.09872 | 36055 ft | 415 kts | 271° |
| 2026-05-08 00:30 | 30.64087 | -100.16510 | 36053 ft | 412 kts | 272° |
| 2026-05-08 00:30 | 30.64893 | -100.23144 | 36055 ft | 415 kts | 271° |